Time;durP1;ratioP1;P1;durP2;ratioP2;P2;SDS_P1;SDS_P2;PMS_P1;PMS_P2;Temp;Humidity;BMP_temperature;BMP_pressure;BME280_temperature;BME280_humidity;BME280_pressure;Samples;Min_cycle;Max_cycle;Signal;HPM_P1;HPM_P2
2023/06/11 00:03:40;;;;;;;;;;;23.00;49.90;;;;;;20841146;28;19932;-58
2023/06/11 00:13:41;;;;;;;;;;;23.10;50.20;;;;;;20844628;28;19925;-58
2023/06/11 00:23:42;;;;;;;;;;;23.10;50.50;;;;;;20844489;28;20031;-56
2023/06/11 00:33:42;;;;;;;;;;;22.90;51.00;;;;;;20843279;28;19971;-59
2023/06/11 00:43:43;;;;;;;;;;;22.80;51.50;;;;;;20843159;28;20012;-57
2023/06/11 00:53:44;;;;;;;;;;;22.60;51.90;;;;;;20841681;28;19980;-57
2023/06/11 01:03:45;;;;;;;;;;;22.70;52.00;;;;;;20840687;28;19925;-58
2023/06/11 01:13:46;;;;;;;;;;;22.50;52.50;;;;;;20838687;28;19931;-57
2023/06/11 01:24:06;;;;;;;;;;;22.40;53.00;;;;;;20839489;28;20410;-57
2023/06/11 01:34:08;;;;;;;;;;;22.30;53.20;;;;;;20838164;28;20024;-57
2023/06/11 01:44:10;;;;;;;;;;;22.20;53.80;;;;;;20838888;28;20394;-57
2023/06/11 01:54:11;;;;;;;;;;;22.10;53.90;;;;;;20838039;28;19955;-56
2023/06/11 02:04:11;;;;;;;;;;;21.90;54.50;;;;;;20835689;28;19932;-57
2023/06/11 02:14:12;;;;;;;;;;;21.90;54.90;;;;;;20835035;28;19932;-57
2023/06/11 02:24:13;;;;;;;;;;;21.80;55.30;;;;;;20832983;28;20390;-57
2023/06/11 02:34:13;;;;;;;;;;;21.70;55.70;;;;;;20833520;28;20271;-57
2023/06/11 02:44:14;;;;;;;;;;;21.60;56.30;;;;;;20832893;28;20302;-57
2023/06/11 02:54:15;;;;;;;;;;;21.50;56.80;;;;;;20831813;28;20412;-57
2023/06/11 03:04:15;;;;;;;;;;;21.60;56.90;;;;;;20832938;28;20374;-57
2023/06/11 03:14:16;;;;;;;;;;;21.60;56.60;;;;;;20831230;28;20283;-58
2023/06/11 03:24:17;;;;;;;;;;;21.60;56.70;;;;;;20831120;28;19925;-58
2023/06/11 03:34:17;;;;;;;;;;;21.50;56.60;;;;;;20838176;28;19975;-57
2023/06/11 03:44:18;;;;;;;;;;;21.50;56.90;;;;;;20858594;28;19992;-58
2023/06/11 03:54:19;;;;;;;;;;;21.40;57.60;;;;;;20857954;28;19929;-57
2023/06/11 04:04:19;;;;;;;;;;;21.40;57.80;;;;;;20857731;28;19924;-58
2023/06/11 04:14:20;;;;;;;;;;;21.40;57.90;;;;;;20856143;28;19955;-58
2023/06/11 04:24:21;;;;;;;;;;;21.30;58.30;;;;;;20856865;28;20420;-58
2023/06/11 04:34:28;;;;;;;;;;;21.20;59.90;;;;;;20854761;28;21425;-57
2023/06/11 04:44:29;;;;;;;;;;;20.90;61.10;;;;;;20852878;28;19936;-57
2023/06/11 04:54:31;;;;;;;;;;;20.80;61.30;;;;;;20843048;28;19925;-57
2023/06/11 05:04:32;;;;;;;;;;;20.70;61.70;;;;;;20842312;28;19992;-57
2023/06/11 05:14:32;;;;;;;;;;;20.60;62.50;;;;;;20841301;28;19972;-57
2023/06/11 05:24:33;;;;;;;;;;;20.40;63.40;;;;;;20840103;28;20100;-58
2023/06/11 05:34:34;;;;;;;;;;;20.30;63.90;;;;;;20839689;28;19977;-56
2023/06/11 05:44:35;;;;;;;;;;;20.50;63.50;;;;;;20839044;28;19932;-58
2023/06/11 05:54:35;;;;;;;;;;;20.50;63.30;;;;;;20837955;28;20012;-57
2023/06/11 06:04:36;;;;;;;;;;;20.60;63.50;;;;;;20837331;28;19925;-57
2023/06/11 06:14:36;;;;;;;;;;;20.70;62.70;;;;;;20836933;28;19925;-56
2023/06/11 06:24:37;;;;;;;;;;;20.80;62.20;;;;;;20835792;28;19992;-57
2023/06/11 06:34:37;;;;;;;;;;;21.10;61.50;;;;;;20835100;28;19925;-58
2023/06/11 06:44:38;;;;;;;;;;;21.20;60.30;;;;;;20834571;28;19925;-57
2023/06/11 06:54:39;;;;;;;;;;;21.40;59.80;;;;;;20833466;28;19983;-57
2023/06/11 07:04:41;;;;;;;;;;;22.10;57.80;;;;;;20832767;28;19925;-58
2023/06/11 07:14:42;;;;;;;;;;;22.50;55.70;;;;;;20831413;28;20016;-57
2023/06/11 07:24:46;;;;;;;;;;;22.70;55.10;;;;;;20829741;28;19979;-57
2023/06/11 07:34:47;;;;;;;;;;;23.30;53.10;;;;;;20831074;28;19982;-57
2023/06/11 07:44:48;;;;;;;;;;;23.90;50.80;;;;;;20831288;28;19976;-58
2023/06/11 07:54:49;;;;;;;;;;;24.10;49.70;;;;;;20830716;28;19944;-58
2023/06/11 08:04:50;;;;;;;;;;;24.50;48.70;;;;;;20827994;28;19983;-58
2023/06/11 08:14:51;;;;;;;;;;;25.10;47.90;;;;;;20829368;28;19925;-57
2023/06/11 08:24:51;;;;;;;;;;;25.30;47.30;;;;;;20836895;28;20039;-57
2023/06/11 08:34:52;;;;;;;;;;;25.60;46.50;;;;;;20844193;28;19999;-58
2023/06/11 08:44:52;;;;;;;;;;;25.80;45.50;;;;;;20843041;28;20019;-59
2023/06/11 08:54:53;;;;;;;;;;;26.20;44.40;;;;;;20841287;28;19925;-59
2023/06/11 09:04:55;;;;;;;;;;;26.10;43.90;;;;;;20840639;28;19925;-57
2023/06/11 09:14:55;;;;;;;;;;;26.40;42.80;;;;;;20840638;28;20023;-58
2023/06/11 09:24:56;;;;;;;;;;;26.60;40.30;;;;;;20839525;28;20070;-59
2023/06/11 09:34:56;;;;;;;;;;;26.70;38.90;;;;;;20838651;28;19932;-57
2023/06/11 09:44:57;;;;;;;;;;;27.00;38.90;;;;;;20838579;28;19925;-58
2023/06/11 09:54:59;;;;;;;;;;;27.10;37.20;;;;;;20837356;28;19932;-58
2023/06/11 10:05:00;;;;;;;;;;;27.20;37.40;;;;;;20835473;28;19936;-58
2023/06/11 10:15:02;;;;;;;;;;;27.50;37.50;;;;;;20835666;28;19925;-59
2023/06/11 10:25:03;;;;;;;;;;;27.70;36.90;;;;;;20834443;28;20275;-58
2023/06/11 10:35:06;;;;;;;;;;;27.40;35.80;;;;;;20834378;28;20016;-57
2023/06/11 10:45:11;;;;;;;;;;;27.50;34.80;;;;;;20833066;28;19925;-58
2023/06/11 10:55:13;;;;;;;;;;;27.40;36.60;;;;;;20832496;28;19925;-59
2023/06/11 11:05:13;;;;;;;;;;;27.60;36.80;;;;;;20831590;28;19925;-57
2023/06/11 11:15:14;;;;;;;;;;;28.10;35.70;;;;;;20830434;28;19931;-58
2023/06/11 11:25:15;;;;;;;;;;;28.10;35.90;;;;;;20829919;28;19979;-58
2023/06/11 11:35:16;;;;;;;;;;;28.30;35.40;;;;;;20829930;28;19925;-57
2023/06/11 11:45:17;;;;;;;;;;;27.90;35.70;;;;;;20830320;28;19932;-59
2023/06/11 11:55:18;;;;;;;;;;;28.10;34.30;;;;;;20833164;28;20374;-58
2023/06/11 12:05:19;;;;;;;;;;;28.10;34.10;;;;;;20845796;28;19929;-58
2023/06/11 12:15:19;;;;;;;;;;;28.50;32.50;;;;;;20845334;28;20027;-58
2023/06/11 12:25:20;;;;;;;;;;;28.10;33.00;;;;;;20844139;28;19981;-57
2023/06/11 12:35:21;;;;;;;;;;;28.40;32.30;;;;;;20842357;28;20275;-58
2023/06/11 12:45:32;;;;;;;;;;;28.40;31.90;;;;;;20841672;28;19925;-57
2023/06/11 12:55:33;;;;;;;;;;;28.50;31.10;;;;;;20842185;28;20370;-57
2023/06/11 13:05:34;;;;;;;;;;;28.70;32.20;;;;;;20841416;28;19947;-57
2023/06/11 13:15:34;;;;;;;;;;;28.50;31.50;;;;;;20841026;28;19925;-58
2023/06/11 13:25:38;;;;;;;;;;;28.60;31.80;;;;;;20839541;28;20374;-58
2023/06/11 13:35:38;;;;;;;;;;;28.90;33.00;;;;;;20839645;28;19929;-58
2023/06/11 13:45:43;;;;;;;;;;;28.90;33.50;;;;;;20839010;28;19979;-58
2023/06/11 13:55:47;;;;;;;;;;;28.90;33.20;;;;;;20837637;28;19925;-58
2023/06/11 14:05:48;;;;;;;;;;;29.00;32.30;;;;;;20836883;28;19926;-58
2023/06/11 14:15:49;;;;;;;;;;;29.00;32.30;;;;;;20834873;28;19925;-58
2023/06/11 14:25:49;;;;;;;;;;;28.60;32.60;;;;;;20834131;28;19929;-59
2023/06/11 14:35:50;;;;;;;;;;;29.00;32.80;;;;;;20834460;28;20011;-58
2023/06/11 14:45:51;;;;;;;;;;;29.10;32.30;;;;;;20833159;28;19932;-57
2023/06/11 14:55:51;;;;;;;;;;;28.90;30.90;;;;;;20832791;28;19925;-56
2023/06/11 15:05:52;;;;;;;;;;;29.10;29.80;;;;;;20831256;28;19956;-57
2023/06/11 15:15:53;;;;;;;;;;;29.00;29.30;;;;;;20829529;28;19972;-59
2023/06/11 15:25:54;;;;;;;;;;;28.90;30.10;;;;;;20830266;28;19925;-58
2023/06/11 15:35:54;;;;;;;;;;;28.80;30.50;;;;;;20829147;28;19933;-57
2023/06/11 15:45:55;;;;;;;;;;;28.90;30.70;;;;;;20830023;28;19925;-57
2023/06/11 15:55:56;;;;;;;;;;;28.90;31.40;;;;;;20828256;28;19987;-57
2023/06/11 16:05:56;;;;;;;;;;;28.80;31.90;;;;;;20828541;28;20406;-58
2023/06/11 16:15:57;;;;;;;;;;;28.50;31.90;;;;;;20827896;28;19925;-58
2023/06/11 16:25:58;;;;;;;;;;;28.30;32.60;;;;;;20828188;28;19925;-58
2023/06/11 16:35:59;;;;;;;;;;;28.50;31.90;;;;;;20828634;28;19925;-57
2023/06/11 16:46:00;;;;;;;;;;;28.60;31.70;;;;;;20836875;28;20015;-57
2023/06/11 16:56:00;;;;;;;;;;;28.50;33.10;;;;;;20841464;28;19929;-57
2023/06/11 17:06:02;;;;;;;;;;;28.50;32.90;;;;;;20841857;28;19933;-58
2023/06/11 17:16:03;;;;;;;;;;;28.20;32.80;;;;;;20841123;28;19925;-59
2023/06/11 17:26:03;;;;;;;;;;;28.20;32.80;;;;;;20839548;28;19964;-59
2023/06/11 17:36:04;;;;;;;;;;;27.90;33.50;;;;;;20838992;28;19925;-58
2023/06/11 17:46:05;;;;;;;;;;;27.90;34.30;;;;;;20838829;28;19925;-60
2023/06/11 17:56:06;;;;;;;;;;;27.80;33.40;;;;;;20835545;28;19971;-59
2023/06/11 18:06:06;;;;;;;;;;;27.80;32.30;;;;;;20836760;28;19925;-58
2023/06/11 18:16:07;;;;;;;;;;;27.60;32.70;;;;;;20836161;28;19925;-59
2023/06/11 18:26:07;;;;;;;;;;;27.50;32.30;;;;;;20834323;28;20410;-57
2023/06/11 18:36:08;;;;;;;;;;;27.40;33.60;;;;;;20834633;28;20119;-57
2023/06/11 18:46:09;;;;;;;;;;;26.90;34.30;;;;;;20833988;28;20369;-59
2023/06/11 18:56:09;;;;;;;;;;;26.60;35.40;;;;;;20833235;28;20004;-58
2023/06/11 19:06:10;;;;;;;;;;;26.40;36.30;;;;;;20832003;28;20363;-58
2023/06/11 19:16:11;;;;;;;;;;;26.10;37.20;;;;;;20831704;28;19925;-57
2023/06/11 19:26:15;;;;;;;;;;;26.00;37.70;;;;;;20831668;28;19925;-58
2023/06/11 19:36:16;;;;;;;;;;;25.90;37.10;;;;;;20829543;28;19925;-57
2023/06/11 19:46:16;;;;;;;;;;;25.60;37.20;;;;;;20830214;28;20374;-59
2023/06/11 19:56:18;;;;;;;;;;;25.50;37.60;;;;;;20828911;28;19929;-58
2023/06/11 20:06:19;;;;;;;;;;;25.40;37.90;;;;;;20829406;28;19932;-58
2023/06/11 20:16:20;;;;;;;;;;;25.30;38.40;;;;;;20832568;28;19929;-58
2023/06/11 20:26:20;;;;;;;;;;;25.10;38.80;;;;;;20843859;28;19925;-57
2023/06/11 20:36:21;;;;;;;;;;;24.90;39.40;;;;;;20842770;28;19925;-58
2023/06/11 20:46:22;;;;;;;;;;;24.70;40.30;;;;;;20842795;28;20374;-58
2023/06/11 20:56:22;;;;;;;;;;;24.60;41.10;;;;;;20842199;28;19926;-57
2023/06/11 21:06:23;;;;;;;;;;;24.40;41.90;;;;;;20842031;28;19929;-58
2023/06/11 21:16:23;;;;;;;;;;;24.30;42.70;;;;;;20841237;28;19999;-59
2023/06/11 21:26:25;;;;;;;;;;;24.20;43.20;;;;;;20839961;28;19969;-58
2023/06/11 21:36:26;;;;;;;;;;;24.10;43.60;;;;;;20839568;28;19972;-58
2023/06/11 21:46:27;;;;;;;;;;;24.00;44.20;;;;;;20838723;28;19925;-59
2023/06/11 21:56:27;;;;;;;;;;;23.90;45.00;;;;;;20836248;28;19925;-59
2023/06/11 22:06:28;;;;;;;;;;;23.60;45.60;;;;;;20837263;28;19925;-59
2023/06/11 22:16:29;;;;;;;;;;;23.50;45.80;;;;;;20836936;28;19925;-60
2023/06/11 22:26:29;;;;;;;;;;;23.60;46.70;;;;;;20835354;28;19925;-59
2023/06/11 22:36:30;;;;;;;;;;;23.60;47.30;;;;;;20835090;28;20008;-60
2023/06/11 22:46:31;;;;;;;;;;;23.50;48.10;;;;;;20832763;28;19931;-58
2023/06/11 22:56:31;;;;;;;;;;;23.40;48.40;;;;;;20832613;28;19925;-60
2023/06/11 23:06:32;;;;;;;;;;;23.30;48.50;;;;;;20833020;28;20378;-57
2023/06/11 23:16:36;;;;;;;;;;;23.30;48.70;;;;;;20832104;28;19932;-57
2023/06/11 23:26:43;;;;;;;;;;;23.20;48.70;;;;;;20831126;28;19925;-58
2023/06/11 23:36:46;;;;;;;;;;;23.10;48.80;;;;;;20831766;28;19995;-58
2023/06/11 23:46:47;;;;;;;;;;;23.00;48.80;;;;;;20831355;28;20394;-58
2023/06/11 23:56:47;;;;;;;;;;;23.00;48.80;;;;;;20844109;28;19995;-57
